KIAB

Mc Connell AFB Airport

Wichita, Kansas, USA
METAR KIAB 221456Z AUTO 22010KT 10SM CLR 24/19 A3004 RMK AO2 SLP164 T02440188 50005
Observed Flight Rules
May-22 @ 14:56 UTC (25 minutes ago) Visual Flight Rules
Wind Visibility Clouds
220° at 10 knots 10 miles
  • Clear skies
Temperatures Readings
Current 24°C / 75°F
Dewpoint 19°C / 66°F
Humidity 74%
Altimeter 30.04" Hg
Pressure 1016.4 hPa
Elevation 418
METAR KIAB 221456Z AUTO 22010KT 10SM CLR 24/19 A3004 RMK AO2 SLP164 T02440188 50005
Observed Flight Rules
May-22 @ 14:56 UTC
(25 minutes ago)
VFR
Wind Visibility
220° at 10 knots 10 miles
Clouds
  • Clear skies
Temperature Dewpoint
24°C / 75°F 19°C / 66°F
Humidity Altimeter Pressure
74% 30.04" Hg 1016.4 hPa